<?xml version="1.0" encoding="UTF-8" standalone="no" ?>
<gpx xmlns="http://www.topografix.com/GPX/1/1" xmlns:xsi="http://www.w3.org/2001/XMLSchema-instance" xsi:schemaLocation="http://www.topografix.com/GPX/1/1 http://www.topografix.com/GPX/1/1/gpx.xsd" version="1.1" creator="VisuGPX - https://www.visugpx.com">
  <metadata>
    <name>Curienne - Sordet</name>
  </metadata>
  <trk>
    <name><![CDATA[Curienne - Sordet]]></name>
    <trkseg>
      <trkpt lat="45.57543" lon="5.96465">
        <ele>304.19184</ele>
        <time>2023-10-21T07:53:46.364Z</time>
      </trkpt>
      <trkpt lat="45.57533" lon="5.96461">
        <ele>304.19184</ele>
        <time>2023-10-21T07:53:49.147Z</time>
      </trkpt>
      <trkpt lat="45.57524" lon="5.96452">
        <ele>304.19184</ele>
        <time>2023-10-21T07:53:52.410Z</time>
      </trkpt>
      <trkpt lat="45.5752" lon="5.96449">
        <ele>304.19184</ele>
        <time>2023-10-21T07:53:53.568Z</time>
      </trkpt>
      <trkpt lat="45.57517" lon="5.96455">
        <ele>304.19184</ele>
        <time>2023-10-21T07:53:54.925Z</time>
      </trkpt>
      <trkpt lat="45.57518" lon="5.96462">
        <ele>304.19184</ele>
        <time>2023-10-21T07:53:56.016Z</time>
      </trkpt>
      <trkpt lat="45.5753" lon="5.96526">
        <ele>304.19184</ele>
        <time>2023-10-21T07:54:06.787Z</time>
      </trkpt>
      <trkpt lat="45.57529" lon="5.96542">
        <ele>304.253905</ele>
        <time>2023-10-21T07:54:09.464Z</time>
      </trkpt>
      <trkpt lat="45.57524" lon="5.96549">
        <ele>304.363791</ele>
        <time>2023-10-21T07:54:11.226Z</time>
      </trkpt>
      <trkpt lat="45.57521" lon="5.96553">
        <ele>304.429789</ele>
        <time>2023-10-21T07:54:12.317Z</time>
      </trkpt>
      <trkpt lat="45.5749" lon="5.96566">
        <ele>304.925617</ele>
        <time>2023-10-21T07:54:20.386Z</time>
      </trkpt>
      <trkpt lat="45.57477" lon="5.96577">
        <ele>305.163611</ele>
        <time>2023-10-21T07:54:24.388Z</time>
      </trkpt>
      <trkpt lat="45.57473" lon="5.96584">
        <ele>305.258286</ele>
        <time>2023-10-21T07:54:25.989Z</time>
      </trkpt>
      <trkpt lat="45.5747" lon="5.96603">
        <ele>305.472024</ele>
        <time>2023-10-21T07:54:29.660Z</time>
      </trkpt>
      <trkpt lat="45.57469" lon="5.96611">
        <ele>305.559619</ele>
        <time>2023-10-21T07:54:31.228Z</time>
      </trkpt>
      <trkpt lat="45.57473" lon="5.96625">
        <ele>305.724343</ele>
        <time>2023-10-21T07:54:34.123Z</time>
      </trkpt>
      <trkpt lat="45.57488" lon="5.96684">
        <ele>306.406524</ele>
        <time>2023-10-21T07:54:46.453Z</time>
      </trkpt>
      <trkpt lat="45.57507" lon="5.96733">
        <ele>307.030768</ele>
        <time>2023-10-21T07:54:57.668Z</time>
      </trkpt>
      <trkpt lat="45.57515" lon="5.9677">
        <ele>307.701248</ele>
        <time>2023-10-21T07:55:05.765Z</time>
      </trkpt>
      <trkpt lat="45.57524" lon="5.96798">
        <ele>308.22291</ele>
        <time>2023-10-21T07:55:12.265Z</time>
      </trkpt>
      <trkpt lat="45.57531" lon="5.96806">
        <ele>308.442529</ele>
        <time>2023-10-21T07:55:16.197Z</time>
      </trkpt>
      <trkpt lat="45.57537" lon="5.96805">
        <ele>308.588214</ele>
        <time>2023-10-21T07:55:18.762Z</time>
      </trkpt>
      <trkpt lat="45.57542" lon="5.96807">
        <ele>308.731392</ele>
        <time>2023-10-21T07:55:20.587Z</time>
      </trkpt>
      <trkpt lat="45.57546" lon="5.96815">
        <ele>308.889548</ele>
        <time>2023-10-21T07:55:22.601Z</time>
      </trkpt>
      <trkpt lat="45.57566" lon="5.96902">
        <ele>310.466006</ele>
        <time>2023-10-21T07:55:43.061Z</time>
      </trkpt>
      <trkpt lat="45.57572" lon="5.96905">
        <ele>310.611369</ele>
        <time>2023-10-21T07:55:44.984Z</time>
      </trkpt>
      <trkpt lat="45.5759" lon="5.96901">
        <ele>311.053428</ele>
        <time>2023-10-21T07:55:50.853Z</time>
      </trkpt>
      <trkpt lat="45.57603" lon="5.96912">
        <ele>311.446693</ele>
        <time>2023-10-21T07:55:55.925Z</time>
      </trkpt>
      <trkpt lat="45.57609" lon="5.96923">
        <ele>311.766589</ele>
        <time>2023-10-21T07:55:59.395Z</time>
      </trkpt>
      <trkpt lat="45.57659" lon="5.97047">
        <ele>314.839159</ele>
        <time>2023-10-21T07:56:34.734Z</time>
      </trkpt>
      <trkpt lat="45.57662" lon="5.97054">
        <ele>315.019192</ele>
        <time>2023-10-21T07:56:36.857Z</time>
      </trkpt>
      <trkpt lat="45.57672" lon="5.97075">
        <ele>315.569879</ele>
        <time>2023-10-21T07:56:43.436Z</time>
      </trkpt>
      <trkpt lat="45.57695" lon="5.97108">
        <ele>316.576639</ele>
        <time>2023-10-21T07:56:55.269Z</time>
      </trkpt>
      <trkpt lat="45.57737" lon="5.9722">
        <ele>318.68373</ele>
        <time>2023-10-21T07:57:23.239Z</time>
      </trkpt>
      <trkpt lat="45.57744" lon="5.9728">
        <ele>319.642749</ele>
        <time>2023-10-21T07:57:34.803Z</time>
      </trkpt>
      <trkpt lat="45.57741" lon="5.97295">
        <ele>319.887055</ele>
        <time>2023-10-21T07:57:37.516Z</time>
      </trkpt>
      <trkpt lat="45.57744" lon="5.97312">
        <ele>320.163264</ele>
        <time>2023-10-21T07:57:40.604Z</time>
      </trkpt>
      <trkpt lat="45.57749" lon="5.97329">
        <ele>320.461496</ele>
        <time>2023-10-21T07:57:44.199Z</time>
      </trkpt>
      <trkpt lat="45.57766" lon="5.97361">
        <ele>321.158762</ele>
        <time>2023-10-21T07:57:53.121Z</time>
      </trkpt>
      <trkpt lat="45.57768" lon="5.97371">
        <ele>321.423371</ele>
        <time>2023-10-21T07:57:55.750Z</time>
      </trkpt>
      <trkpt lat="45.57764" lon="5.97382">
        <ele>321.723117</ele>
        <time>2023-10-21T07:57:58.715Z</time>
      </trkpt>
      <trkpt lat="45.57756" lon="5.97391">
        <ele>322.07874</ele>
        <time>2023-10-21T07:58:02.431Z</time>
      </trkpt>
      <trkpt lat="45.57744" lon="5.97402">
        <ele>322.598683</ele>
        <time>2023-10-21T07:58:07.133Z</time>
      </trkpt>
      <trkpt lat="45.57731" lon="5.97412">
        <ele>323.111237</ele>
        <time>2023-10-21T07:58:12.122Z</time>
      </trkpt>
      <trkpt lat="45.57689" lon="5.97447">
        <ele>324.823852</ele>
        <time>2023-10-21T07:58:28.518Z</time>
      </trkpt>
      <trkpt lat="45.57682" lon="5.9745">
        <ele>325.075314</ele>
        <time>2023-10-21T07:58:30.593Z</time>
      </trkpt>
      <trkpt lat="45.57689" lon="5.97473">
        <ele>325.67404</ele>
        <time>2023-10-21T07:58:36.739Z</time>
      </trkpt>
      <trkpt lat="45.57689" lon="5.97481">
        <ele>325.876573</ele>
        <time>2023-10-21T07:58:39.129Z</time>
      </trkpt>
      <trkpt lat="45.57678" lon="5.97506">
        <ele>326.604724</ele>
        <time>2023-10-21T07:58:46.677Z</time>
      </trkpt>
      <trkpt lat="45.57671" lon="5.97517">
        <ele>326.982087</ele>
        <time>2023-10-21T07:58:50.843Z</time>
      </trkpt>
      <trkpt lat="45.57672" lon="5.97526">
        <ele>327.187063</ele>
        <time>2023-10-21T07:58:53.612Z</time>
      </trkpt>
      <trkpt lat="45.57619" lon="5.97649">
        <ele>335.033536</ele>
        <time>2023-10-21T07:59:49.759Z</time>
      </trkpt>
      <trkpt lat="45.57606" lon="5.97706">
        <ele>338.330349</ele>
        <time>2023-10-21T08:00:19.245Z</time>
      </trkpt>
      <trkpt lat="45.57602" lon="5.97755">
        <ele>341.053613</ele>
        <time>2023-10-21T08:00:42.383Z</time>
      </trkpt>
      <trkpt lat="45.57605" lon="5.97772">
        <ele>342.119879</ele>
        <time>2023-10-21T08:00:50.713Z</time>
      </trkpt>
      <trkpt lat="45.57629" lon="5.97816">
        <ele>345.946728</ele>
        <time>2023-10-21T08:01:17.833Z</time>
      </trkpt>
      <trkpt lat="45.5764" lon="5.97842">
        <ele>347.949313</ele>
        <time>2023-10-21T08:01:31.922Z</time>
      </trkpt>
      <trkpt lat="45.57647" lon="5.97875">
        <ele>350.331768</ele>
        <time>2023-10-21T08:01:50.100Z</time>
      </trkpt>
      <trkpt lat="45.57652" lon="5.97911">
        <ele>352.768239</ele>
        <time>2023-10-21T08:02:09.949Z</time>
      </trkpt>
      <trkpt lat="45.57656" lon="5.97908">
        <ele>353.258052</ele>
        <time>2023-10-21T08:02:13.988Z</time>
      </trkpt>
      <trkpt lat="45.5767" lon="5.97877">
        <ele>355.802671</ele>
        <time>2023-10-21T08:02:31.987Z</time>
      </trkpt>
      <trkpt lat="45.57673" lon="5.97866">
        <ele>356.569683</ele>
        <time>2023-10-21T08:02:37.701Z</time>
      </trkpt>
      <trkpt lat="45.57675" lon="5.97849">
        <ele>357.744087</ele>
        <time>2023-10-21T08:02:44.794Z</time>
      </trkpt>
      <trkpt lat="45.57671" lon="5.97812">
        <ele>360.099192</ele>
        <time>2023-10-21T08:03:00.132Z</time>
      </trkpt>
      <trkpt lat="45.57673" lon="5.97806">
        <ele>360.469057</ele>
        <time>2023-10-21T08:03:02.293Z</time>
      </trkpt>
      <trkpt lat="45.57676" lon="5.9781">
        <ele>360.813293</ele>
        <time>2023-10-21T08:03:04.108Z</time>
      </trkpt>
      <trkpt lat="45.57685" lon="5.97845">
        <ele>363.037874</ele>
        <time>2023-10-21T08:03:19.677Z</time>
      </trkpt>
      <trkpt lat="45.57702" lon="5.9789">
        <ele>366.119017</ele>
        <time>2023-10-21T08:03:40.114Z</time>
      </trkpt>
      <trkpt lat="45.577" lon="5.97869">
        <ele>367.421795</ele>
        <time>2023-10-21T08:03:47.958Z</time>
      </trkpt>
      <trkpt lat="45.57684" lon="5.97812">
        <ele>371.108194</ele>
        <time>2023-10-21T08:04:15.324Z</time>
      </trkpt>
      <trkpt lat="45.57686" lon="5.97801">
        <ele>371.778555</ele>
        <time>2023-10-21T08:04:20.976Z</time>
      </trkpt>
      <trkpt lat="45.57691" lon="5.97795">
        <ele>372.349095</ele>
        <time>2023-10-21T08:04:25.534Z</time>
      </trkpt>
      <trkpt lat="45.57699" lon="5.97797">
        <ele>373.099103</ele>
        <time>2023-10-21T08:04:30.824Z</time>
      </trkpt>
      <trkpt lat="45.57718" lon="5.97846">
        <ele>377.022602</ele>
        <time>2023-10-21T08:04:59.339Z</time>
      </trkpt>
      <trkpt lat="45.5773" lon="5.97878">
        <ele>379.802135</ele>
        <time>2023-10-21T08:05:19.025Z</time>
      </trkpt>
      <trkpt lat="45.57738" lon="5.97909">
        <ele>382.287637</ele>
        <time>2023-10-21T08:05:34.298Z</time>
      </trkpt>
      <trkpt lat="45.57748" lon="5.97948">
        <ele>385.45536</ele>
        <time>2023-10-21T08:05:55.544Z</time>
      </trkpt>
      <trkpt lat="45.57745" lon="5.97985">
        <ele>388.284233</ele>
        <time>2023-10-21T08:06:15.763Z</time>
      </trkpt>
      <trkpt lat="45.57742" lon="5.98012">
        <ele>390.312129</ele>
        <time>2023-10-21T08:06:31.748Z</time>
      </trkpt>
      <trkpt lat="45.57735" lon="5.98052">
        <ele>393.447305</ele>
        <time>2023-10-21T08:06:55.202Z</time>
      </trkpt>
      <trkpt lat="45.57725" lon="5.98082">
        <ele>395.244821</ele>
        <time>2023-10-21T08:07:13.008Z</time>
      </trkpt>
      <trkpt lat="45.57723" lon="5.98086">
        <ele>395.437588</ele>
        <time>2023-10-21T08:07:14.997Z</time>
      </trkpt>
      <trkpt lat="45.57686" lon="5.9819">
        <ele>401.137844</ele>
        <time>2023-10-21T08:08:04.645Z</time>
      </trkpt>
      <trkpt lat="45.57679" lon="5.98226">
        <ele>402.945439</ele>
        <time>2023-10-21T08:08:15.530Z</time>
      </trkpt>
      <trkpt lat="45.57674" lon="5.98239">
        <ele>403.658473</ele>
        <time>2023-10-21T08:08:18.668Z</time>
      </trkpt>
      <trkpt lat="45.57649" lon="5.98285">
        <ele>406.500532</ele>
        <time>2023-10-21T08:08:31.110Z</time>
      </trkpt>
      <trkpt lat="45.57649" lon="5.98294">
        <ele>406.925952</ele>
        <time>2023-10-21T08:08:33.518Z</time>
      </trkpt>
      <trkpt lat="45.57654" lon="5.98301">
        <ele>407.336074</ele>
        <time>2023-10-21T08:08:36.381Z</time>
      </trkpt>
      <trkpt lat="45.5763" lon="5.98339">
        <ele>409.568285</ele>
        <time>2023-10-21T08:08:50.765Z</time>
      </trkpt>
      <trkpt lat="45.576" lon="5.9837">
        <ele>411.821875</ele>
        <time>2023-10-21T08:09:08.018Z</time>
      </trkpt>
      <trkpt lat="45.57575" lon="5.98384">
        <ele>413.489655</ele>
        <time>2023-10-21T08:09:21.930Z</time>
      </trkpt>
      <trkpt lat="45.57572" lon="5.98392">
        <ele>413.923786</ele>
        <time>2023-10-21T08:09:26.391Z</time>
      </trkpt>
      <trkpt lat="45.57559" lon="5.98402">
        <ele>414.824336</ele>
        <time>2023-10-21T08:09:34.401Z</time>
      </trkpt>
      <trkpt lat="45.57558" lon="5.98407">
        <ele>415.032913</ele>
        <time>2023-10-21T08:09:36.401Z</time>
      </trkpt>
      <trkpt lat="45.57573" lon="5.98432">
        <ele>416.463477</ele>
        <time>2023-10-21T08:09:51.469Z</time>
      </trkpt>
      <trkpt lat="45.57577" lon="5.98438">
        <ele>416.806356</ele>
        <time>2023-10-21T08:09:54.838Z</time>
      </trkpt>
      <trkpt lat="45.57586" lon="5.98441">
        <ele>417.380455</ele>
        <time>2023-10-21T08:10:00.739Z</time>
      </trkpt>
      <trkpt lat="45.57618" lon="5.98442">
        <ele>420.387688</ele>
        <time>2023-10-21T08:10:21.075Z</time>
      </trkpt>
      <trkpt lat="45.57627" lon="5.9845">
        <ele>421.4279</ele>
        <time>2023-10-21T08:10:28.350Z</time>
      </trkpt>
      <trkpt lat="45.57653" lon="5.98483">
        <ele>424.782922</ele>
        <time>2023-10-21T08:10:53.149Z</time>
      </trkpt>
      <trkpt lat="45.57675" lon="5.98521">
        <ele>428.149204</ele>
        <time>2023-10-21T08:11:19.357Z</time>
      </trkpt>
      <trkpt lat="45.57695" lon="5.98547">
        <ele>430.760932</ele>
        <time>2023-10-21T08:11:38.967Z</time>
      </trkpt>
      <trkpt lat="45.57702" lon="5.98554">
        <ele>431.553387</ele>
        <time>2023-10-21T08:11:44.826Z</time>
      </trkpt>
      <trkpt lat="45.57715" lon="5.98557">
        <ele>432.812099</ele>
        <time>2023-10-21T08:11:53.095Z</time>
      </trkpt>
      <trkpt lat="45.57733" lon="5.98551">
        <ele>434.655924</ele>
        <time>2023-10-21T08:12:05.630Z</time>
      </trkpt>
      <trkpt lat="45.57741" lon="5.98554">
        <ele>435.321303</ele>
        <time>2023-10-21T08:12:10.504Z</time>
      </trkpt>
      <trkpt lat="45.57739" lon="5.98566">
        <ele>435.93804</ele>
        <time>2023-10-21T08:12:16.565Z</time>
      </trkpt>
      <trkpt lat="45.57729" lon="5.98577">
        <ele>436.818898</ele>
        <time>2023-10-21T08:12:25.226Z</time>
      </trkpt>
      <trkpt lat="45.57727" lon="5.98596">
        <ele>437.803577</ele>
        <time>2023-10-21T08:12:34.829Z</time>
      </trkpt>
      <trkpt lat="45.57782" lon="5.98587">
        <ele>441.814417</ele>
        <time>2023-10-21T08:13:10.568Z</time>
      </trkpt>
      <trkpt lat="45.57789" lon="5.98603">
        <ele>442.804072</ele>
        <time>2023-10-21T08:13:19.319Z</time>
      </trkpt>
      <trkpt lat="45.57796" lon="5.98606">
        <ele>443.356217</ele>
        <time>2023-10-21T08:13:23.535Z</time>
      </trkpt>
      <trkpt lat="45.5778" lon="5.98625">
        <ele>444.898433</ele>
        <time>2023-10-21T08:13:33.974Z</time>
      </trkpt>
      <trkpt lat="45.57742" lon="5.98637">
        <ele>447.718581</ele>
        <time>2023-10-21T08:13:54.357Z</time>
      </trkpt>
      <trkpt lat="45.57724" lon="5.98652">
        <ele>449.756144</ele>
        <time>2023-10-21T08:14:06.105Z</time>
      </trkpt>
      <trkpt lat="45.57704" lon="5.98679">
        <ele>452.709723</ele>
        <time>2023-10-21T08:14:22.565Z</time>
      </trkpt>
      <trkpt lat="45.57689" lon="5.98706">
        <ele>455.331635</ele>
        <time>2023-10-21T08:14:39.350Z</time>
      </trkpt>
      <trkpt lat="45.57666" lon="5.98757">
        <ele>459.792914</ele>
        <time>2023-10-21T08:15:10.884Z</time>
      </trkpt>
      <trkpt lat="45.57652" lon="5.98777">
        <ele>461.931898</ele>
        <time>2023-10-21T08:15:27.178Z</time>
      </trkpt>
      <trkpt lat="45.57654" lon="5.98788">
        <ele>462.800008</ele>
        <time>2023-10-21T08:15:34.701Z</time>
      </trkpt>
      <trkpt lat="45.57644" lon="5.98835">
        <ele>466.378149</ele>
        <time>2023-10-21T08:16:06.977Z</time>
      </trkpt>
      <trkpt lat="45.5761" lon="5.98862">
        <ele>471.081743</ele>
        <time>2023-10-21T08:16:45.157Z</time>
      </trkpt>
      <trkpt lat="45.57606" lon="5.98904">
        <ele>474.771037</ele>
        <time>2023-10-21T08:17:15.135Z</time>
      </trkpt>
      <trkpt lat="45.57612" lon="5.9897">
        <ele>480.512548</ele>
        <time>2023-10-21T08:18:03.413Z</time>
      </trkpt>
      <trkpt lat="45.57611" lon="5.99051">
        <ele>487.571931</ele>
        <time>2023-10-21T08:18:54.276Z</time>
      </trkpt>
      <trkpt lat="45.57604" lon="5.99103">
        <ele>491.296787</ele>
        <time>2023-10-21T08:19:24.077Z</time>
      </trkpt>
      <trkpt lat="45.57604" lon="5.9911">
        <ele>491.709216</ele>
        <time>2023-10-21T08:19:28.472Z</time>
      </trkpt>
      <trkpt lat="45.57606" lon="5.99141">
        <ele>493.483355</ele>
        <time>2023-10-21T08:19:43.728Z</time>
      </trkpt>
      <trkpt lat="45.57601" lon="5.99147">
        <ele>494.052141</ele>
        <time>2023-10-21T08:19:48.853Z</time>
      </trkpt>
      <trkpt lat="45.57593" lon="5.9915">
        <ele>494.685836</ele>
        <time>2023-10-21T08:19:55.159Z</time>
      </trkpt>
      <trkpt lat="45.57592" lon="5.99157">
        <ele>495.064956</ele>
        <time>2023-10-21T08:19:58.884Z</time>
      </trkpt>
      <trkpt lat="45.57626" lon="5.9922">
        <ele>499.674938</ele>
        <time>2023-10-21T08:20:36.998Z</time>
      </trkpt>
      <trkpt lat="45.57637" lon="5.99259">
        <ele>502.167055</ele>
        <time>2023-10-21T08:20:58.218Z</time>
      </trkpt>
      <trkpt lat="45.57659" lon="5.99352">
        <ele>508.729487</ele>
        <time>2023-10-21T08:21:44.319Z</time>
      </trkpt>
      <trkpt lat="45.57672" lon="5.99388">
        <ele>511.670682</ele>
        <time>2023-10-21T08:22:02.757Z</time>
      </trkpt>
      <trkpt lat="45.57692" lon="5.99553">
        <ele>524.201751</ele>
        <time>2023-10-21T08:23:49.086Z</time>
      </trkpt>
      <trkpt lat="45.57692" lon="5.99583">
        <ele>527.543488</ele>
        <time>2023-10-21T08:24:12.535Z</time>
      </trkpt>
      <trkpt lat="45.57685" lon="5.99642">
        <ele>534.175649</ele>
        <time>2023-10-21T08:25:00.874Z</time>
      </trkpt>
      <trkpt lat="45.57673" lon="5.99713">
        <ele>542.235152</ele>
        <time>2023-10-21T08:26:01.696Z</time>
      </trkpt>
      <trkpt lat="45.57667" lon="5.99745">
        <ele>545.851469</ele>
        <time>2023-10-21T08:26:28.312Z</time>
      </trkpt>
      <trkpt lat="45.5766" lon="5.99813">
        <ele>552.777845</ele>
        <time>2023-10-21T08:27:23.320Z</time>
      </trkpt>
      <trkpt lat="45.57643" lon="5.99923">
        <ele>560.992875</ele>
        <time>2023-10-21T08:28:43.420Z</time>
      </trkpt>
      <trkpt lat="45.57639" lon="6.00067">
        <ele>570.538974</ele>
        <time>2023-10-21T08:29:50.780Z</time>
      </trkpt>
      <trkpt lat="45.57644" lon="6.00151">
        <ele>572.188875</ele>
        <time>2023-10-21T08:30:13.901Z</time>
      </trkpt>
      <trkpt lat="45.5765" lon="6.00202">
        <ele>573.201269</ele>
        <time>2023-10-21T08:30:24.914Z</time>
      </trkpt>
      <trkpt lat="45.57652" lon="6.00257">
        <ele>574.289049</ele>
        <time>2023-10-21T08:30:40.193Z</time>
      </trkpt>
      <trkpt lat="45.57649" lon="6.00334">
        <ele>576.749457</ele>
        <time>2023-10-21T08:31:07.933Z</time>
      </trkpt>
      <trkpt lat="45.5764" lon="6.00407">
        <ele>580.767941</ele>
        <time>2023-10-21T08:31:41.474Z</time>
      </trkpt>
      <trkpt lat="45.57635" lon="6.00409">
        <ele>581.126068</ele>
        <time>2023-10-21T08:31:45.268Z</time>
      </trkpt>
      <trkpt lat="45.57632" lon="6.00402">
        <ele>581.599528</ele>
        <time>2023-10-21T08:31:49.897Z</time>
      </trkpt>
      <trkpt lat="45.57628" lon="6.00384">
        <ele>582.64278</ele>
        <time>2023-10-21T08:31:59.847Z</time>
      </trkpt>
      <trkpt lat="45.57621" lon="6.00365">
        <ele>583.779282</ele>
        <time>2023-10-21T08:32:10.836Z</time>
      </trkpt>
      <trkpt lat="45.5761" lon="6.00351">
        <ele>584.894625</ele>
        <time>2023-10-21T08:32:22.474Z</time>
      </trkpt>
      <trkpt lat="45.57599" lon="6.00325">
        <ele>586.535716</ele>
        <time>2023-10-21T08:32:39.044Z</time>
      </trkpt>
      <trkpt lat="45.57593" lon="6.00304">
        <ele>587.786314</ele>
        <time>2023-10-21T08:32:52.521Z</time>
      </trkpt>
      <trkpt lat="45.57576" lon="6.00266">
        <ele>590.392229</ele>
        <time>2023-10-21T08:33:18.771Z</time>
      </trkpt>
      <trkpt lat="45.57571" lon="6.00233">
        <ele>592.500007</ele>
        <time>2023-10-21T08:33:38.212Z</time>
      </trkpt>
      <trkpt lat="45.57573" lon="6.00201">
        <ele>594.487718</ele>
        <time>2023-10-21T08:33:57.672Z</time>
      </trkpt>
      <trkpt lat="45.57572" lon="6.00156">
        <ele>597.315669</ele>
        <time>2023-10-21T08:34:23.387Z</time>
      </trkpt>
      <trkpt lat="45.57569" lon="6.00078">
        <ele>602.221038</ele>
        <time>2023-10-21T08:35:02.746Z</time>
      </trkpt>
      <trkpt lat="45.57565" lon="6.00034">
        <ele>604.985683</ele>
        <time>2023-10-21T08:35:23.464Z</time>
      </trkpt>
      <trkpt lat="45.57555" lon="5.99962">
        <ele>609.612502</ele>
        <time>2023-10-21T08:35:58.817Z</time>
      </trkpt>
      <trkpt lat="45.57543" lon="5.99927">
        <ele>612.059502</ele>
        <time>2023-10-21T08:36:17.841Z</time>
      </trkpt>
      <trkpt lat="45.575" lon="5.99822">
        <ele>619.831989</ele>
        <time>2023-10-21T08:37:25.964Z</time>
      </trkpt>
      <trkpt lat="45.57489" lon="5.99801">
        <ele>621.481941</ele>
        <time>2023-10-21T08:37:40.693Z</time>
      </trkpt>
      <trkpt lat="45.57474" lon="5.99807">
        <ele>623.294618</ele>
        <time>2023-10-21T08:37:55.678Z</time>
      </trkpt>
      <trkpt lat="45.57476" lon="5.99823">
        <ele>624.636223</ele>
        <time>2023-10-21T08:38:04.716Z</time>
      </trkpt>
      <trkpt lat="45.57475" lon="5.99889">
        <ele>630.351616</ele>
        <time>2023-10-21T08:38:48.931Z</time>
      </trkpt>
      <trkpt lat="45.57457" lon="5.99965">
        <ele>637.156651</ele>
        <time>2023-10-21T08:39:44.021Z</time>
      </trkpt>
      <trkpt lat="45.57457" lon="5.99983">
        <ele>638.742402</ele>
        <time>2023-10-21T08:39:55.162Z</time>
      </trkpt>
      <trkpt lat="45.5745" lon="5.99985">
        <ele>639.558801</ele>
        <time>2023-10-21T08:40:01.666Z</time>
      </trkpt>
      <trkpt lat="45.57443" lon="5.99995">
        <ele>640.815688</ele>
        <time>2023-10-21T08:40:10.921Z</time>
      </trkpt>
      <trkpt lat="45.5742" lon="6.00131">
        <ele>651.630446</ele>
        <time>2023-10-21T08:41:26.493Z</time>
      </trkpt>
      <trkpt lat="45.57387" lon="6.00299">
        <ele>663.916645</ele>
        <time>2023-10-21T08:42:52.165Z</time>
      </trkpt>
      <trkpt lat="45.57376" lon="6.00339">
        <ele>665.884986</ele>
        <time>2023-10-21T08:43:10.266Z</time>
      </trkpt>
      <trkpt lat="45.57305" lon="6.00554">
        <ele>675.488549</ele>
        <time>2023-10-21T08:44:28.308Z</time>
      </trkpt>
      <trkpt lat="45.5725" lon="6.00658">
        <ele>677.950719</ele>
        <time>2023-10-21T08:44:58.575Z</time>
      </trkpt>
      <trkpt lat="45.57221" lon="6.0069">
        <ele>678.962549</ele>
        <time>2023-10-21T08:45:08.298Z</time>
      </trkpt>
      <trkpt lat="45.57132" lon="6.00751">
        <ele>678.789114</ele>
        <time>2023-10-21T08:45:26.815Z</time>
      </trkpt>
      <trkpt lat="45.57046" lon="6.00833">
        <ele>678.028999</ele>
        <time>2023-10-21T08:45:43.302Z</time>
      </trkpt>
      <trkpt lat="45.57033" lon="6.00843">
        <ele>678.022081</ele>
        <time>2023-10-21T08:45:45.490Z</time>
      </trkpt>
      <trkpt lat="45.5702" lon="6.00852">
        <ele>678.0149</ele>
        <time>2023-10-21T08:45:47.952Z</time>
      </trkpt>
      <trkpt lat="45.57001" lon="6.00919">
        <ele>677.989939</ele>
        <time>2023-10-21T08:46:02.309Z</time>
      </trkpt>
      <trkpt lat="45.56924" lon="6.00997">
        <ele>677.94302</ele>
        <time>2023-10-21T08:46:35.938Z</time>
      </trkpt>
      <trkpt lat="45.56917" lon="6.01038">
        <ele>678.664998</ele>
        <time>2023-10-21T08:46:48.016Z</time>
      </trkpt>
      <trkpt lat="45.56908" lon="6.01062">
        <ele>679.154964</ele>
        <time>2023-10-21T08:46:57.044Z</time>
      </trkpt>
      <trkpt lat="45.56857" lon="6.01097">
        <ele>680.591427</ele>
        <time>2023-10-21T08:47:27.864Z</time>
      </trkpt>
      <trkpt lat="45.5683" lon="6.01105">
        <ele>681.284962</ele>
        <time>2023-10-21T08:47:41.786Z</time>
      </trkpt>
      <trkpt lat="45.56801" lon="6.0114">
        <ele>682.233772</ele>
        <time>2023-10-21T08:47:58.183Z</time>
      </trkpt>
      <trkpt lat="45.56784" lon="6.01154">
        <ele>681.953331</ele>
        <time>2023-10-21T08:48:05.806Z</time>
      </trkpt>
      <trkpt lat="45.56765" lon="6.01191">
        <ele>680.252396</ele>
        <time>2023-10-21T08:48:15.612Z</time>
      </trkpt>
      <trkpt lat="45.56763" lon="6.01174">
        <ele>679.645962</ele>
        <time>2023-10-21T08:48:18.656Z</time>
      </trkpt>
      <trkpt lat="45.5676" lon="6.01165">
        <ele>679.25278</ele>
        <time>2023-10-21T08:48:19.821Z</time>
      </trkpt>
      <trkpt lat="45.56763" lon="6.01174">
        <ele>678.859598</ele>
        <time>2023-10-21T08:48:20.954Z</time>
      </trkpt>
      <trkpt lat="45.56765" lon="6.01191">
        <ele>678.253163</ele>
        <time>2023-10-21T08:48:23.920Z</time>
      </trkpt>
      <trkpt lat="45.56781" lon="6.012">
        <ele>677.300363</ele>
        <time>2023-10-21T08:48:34.427Z</time>
      </trkpt>
      <trkpt lat="45.56842" lon="6.0118">
        <ele>674.009197</ele>
        <time>2023-10-21T08:49:08.800Z</time>
      </trkpt>
      <trkpt lat="45.56868" lon="6.01182">
        <ele>672.215282</ele>
        <time>2023-10-21T08:49:22.625Z</time>
      </trkpt>
      <trkpt lat="45.56894" lon="6.01195">
        <ele>668.825281</ele>
        <time>2023-10-21T08:49:36.913Z</time>
      </trkpt>
      <trkpt lat="45.56906" lon="6.01224">
        <ele>665.949</ele>
        <time>2023-10-21T08:49:48.857Z</time>
      </trkpt>
      <trkpt lat="45.56936" lon="6.01239">
        <ele>662.071322</ele>
        <time>2023-10-21T08:50:05.437Z</time>
      </trkpt>
      <trkpt lat="45.56974" lon="6.01284">
        <ele>656.06297</ele>
        <time>2023-10-21T08:50:31.750Z</time>
      </trkpt>
      <trkpt lat="45.56987" lon="6.01334">
        <ele>651.608927</ele>
        <time>2023-10-21T08:50:51.097Z</time>
      </trkpt>
      <trkpt lat="45.56997" lon="6.01347">
        <ele>649.869662</ele>
        <time>2023-10-21T08:50:58.048Z</time>
      </trkpt>
      <trkpt lat="45.57007" lon="6.0135">
        <ele>648.475774</ele>
        <time>2023-10-21T08:51:03.233Z</time>
      </trkpt>
      <trkpt lat="45.57006" lon="6.0136">
        <ele>647.569573</ele>
        <time>2023-10-21T08:51:04.640Z</time>
      </trkpt>
      <trkpt lat="45.57" lon="6.01367">
        <ele>646.491981</ele>
        <time>2023-10-21T08:51:06.338Z</time>
      </trkpt>
      <trkpt lat="45.56986" lon="6.01373">
        <ele>644.574457</ele>
        <time>2023-10-21T08:51:09.238Z</time>
      </trkpt>
      <trkpt lat="45.56966" lon="6.01372">
        <ele>641.792473</ele>
        <time>2023-10-21T08:51:13.484Z</time>
      </trkpt>
      <trkpt lat="45.5695" lon="6.01379">
        <ele>639.619931</ele>
        <time>2023-10-21T08:51:16.765Z</time>
      </trkpt>
      <trkpt lat="45.56939" lon="6.01405">
        <ele>636.753672</ele>
        <time>2023-10-21T08:51:21.124Z</time>
      </trkpt>
      <trkpt lat="45.56947" lon="6.01421">
        <ele>634.945773</ele>
        <time>2023-10-21T08:51:23.872Z</time>
      </trkpt>
      <trkpt lat="45.56951" lon="6.01456">
        <ele>631.618682</ele>
        <time>2023-10-21T08:51:28.973Z</time>
      </trkpt>
      <trkpt lat="45.56966" lon="6.01498">
        <ele>627.152266</ele>
        <time>2023-10-21T08:51:35.878Z</time>
      </trkpt>
      <trkpt lat="45.5698" lon="6.0152">
        <ele>624.722259</ele>
        <time>2023-10-21T08:51:40.118Z</time>
      </trkpt>
      <trkpt lat="45.56984" lon="6.01545">
        <ele>622.536215</ele>
        <time>2023-10-21T08:51:43.891Z</time>
      </trkpt>
      <trkpt lat="45.56957" lon="6.01588">
        <ele>617.822811</ele>
        <time>2023-10-21T08:51:51.899Z</time>
      </trkpt>
      <trkpt lat="45.56928" lon="6.01622">
        <ele>613.315896</ele>
        <time>2023-10-21T08:51:59.658Z</time>
      </trkpt>
      <trkpt lat="45.56892" lon="6.01687">
        <ele>606.499844</ele>
        <time>2023-10-21T08:52:12.081Z</time>
      </trkpt>
      <trkpt lat="45.56903" lon="6.01682">
        <ele>605.620234</ele>
        <time>2023-10-21T08:52:14.688Z</time>
      </trkpt>
      <trkpt lat="45.56932" lon="6.01655">
        <ele>604.706728</ele>
        <time>2023-10-21T08:52:23.305Z</time>
      </trkpt>
      <trkpt lat="45.56947" lon="6.01635">
        <ele>604.163672</ele>
        <time>2023-10-21T08:52:28.794Z</time>
      </trkpt>
      <trkpt lat="45.56976" lon="6.01612">
        <ele>603.309366</ele>
        <time>2023-10-21T08:52:37.639Z</time>
      </trkpt>
      <trkpt lat="45.56981" lon="6.01602">
        <ele>603.069896</ele>
        <time>2023-10-21T08:52:40.198Z</time>
      </trkpt>
      <trkpt lat="45.56983" lon="6.01587">
        <ele>602.788697</ele>
        <time>2023-10-21T08:52:43.208Z</time>
      </trkpt>
      <trkpt lat="45.56992" lon="6.01575">
        <ele>602.466664</ele>
        <time>2023-10-21T08:52:46.778Z</time>
      </trkpt>
      <trkpt lat="45.56997" lon="6.01562">
        <ele>602.203461</ele>
        <time>2023-10-21T08:52:49.753Z</time>
      </trkpt>
      <trkpt lat="45.57004" lon="6.01554">
        <ele>601.974117</ele>
        <time>2023-10-21T08:52:52.475Z</time>
      </trkpt>
      <trkpt lat="45.57013" lon="6.01511">
        <ele>601.138324</ele>
        <time>2023-10-21T08:53:02.831Z</time>
      </trkpt>
      <trkpt lat="45.57027" lon="6.015">
        <ele>600.950764</ele>
        <time>2023-10-21T08:53:08.356Z</time>
      </trkpt>
      <trkpt lat="45.57055" lon="6.01501">
        <ele>600.755724</ele>
        <time>2023-10-21T08:53:17.997Z</time>
      </trkpt>
      <trkpt lat="45.57063" lon="6.01498">
        <ele>600.697935</ele>
        <time>2023-10-21T08:53:20.741Z</time>
      </trkpt>
      <trkpt lat="45.57067" lon="6.01494">
        <ele>600.660593</ele>
        <time>2023-10-21T08:53:22.414Z</time>
      </trkpt>
      <trkpt lat="45.5707" lon="6.01481">
        <ele>600.592816</ele>
        <time>2023-10-21T08:53:25.476Z</time>
      </trkpt>
      <trkpt lat="45.57092" lon="6.01447">
        <ele>600.361933</ele>
        <time>2023-10-21T08:53:35.690Z</time>
      </trkpt>
      <trkpt lat="45.571" lon="6.01412">
        <ele>600.180119</ele>
        <time>2023-10-21T08:53:43.260Z</time>
      </trkpt>
      <trkpt lat="45.57095" lon="6.01392">
        <ele>600.076874</ele>
        <time>2023-10-21T08:53:47.306Z</time>
      </trkpt>
      <trkpt lat="45.57102" lon="6.01364">
        <ele>599.928762</ele>
        <time>2023-10-21T08:53:53.263Z</time>
      </trkpt>
      <trkpt lat="45.57126" lon="6.01323">
        <ele>599.306119</ele>
        <time>2023-10-21T08:54:03.737Z</time>
      </trkpt>
      <trkpt lat="45.57086" lon="6.01178">
        <ele>595.732132</ele>
        <time>2023-10-21T08:54:32.624Z</time>
      </trkpt>
      <trkpt lat="45.57088" lon="6.01166">
        <ele>595.458857</ele>
        <time>2023-10-21T08:54:34.768Z</time>
      </trkpt>
      <trkpt lat="45.57094" lon="6.01154">
        <ele>595.105657</ele>
        <time>2023-10-21T08:54:37.506Z</time>
      </trkpt>
      <trkpt lat="45.57118" lon="6.01135">
        <ele>594.240193</ele>
        <time>2023-10-21T08:54:44.031Z</time>
      </trkpt>
      <trkpt lat="45.57118" lon="6.01126">
        <ele>594.023935</ele>
        <time>2023-10-21T08:54:45.667Z</time>
      </trkpt>
      <trkpt lat="45.57112" lon="6.01099">
        <ele>592.918583</ele>
        <time>2023-10-21T08:54:50.206Z</time>
      </trkpt>
      <trkpt lat="45.57114" lon="6.01093">
        <ele>592.665256</ele>
        <time>2023-10-21T08:54:51.123Z</time>
      </trkpt>
      <trkpt lat="45.57124" lon="6.01086">
        <ele>591.988316</ele>
        <time>2023-10-21T08:54:53.658Z</time>
      </trkpt>
      <trkpt lat="45.57127" lon="6.01084">
        <ele>591.78579</ele>
        <time>2023-10-21T08:54:54.454Z</time>
      </trkpt>
      <trkpt lat="45.57138" lon="6.0108">
        <ele>591.062666</ele>
        <time>2023-10-21T08:54:57.131Z</time>
      </trkpt>
      <trkpt lat="45.57149" lon="6.01069">
        <ele>590.200827</ele>
        <time>2023-10-21T08:55:00.334Z</time>
      </trkpt>
      <trkpt lat="45.57163" lon="6.01063">
        <ele>589.305648</ele>
        <time>2023-10-21T08:55:03.761Z</time>
      </trkpt>
      <trkpt lat="45.57175" lon="6.01053">
        <ele>588.420799</ele>
        <time>2023-10-21T08:55:07.053Z</time>
      </trkpt>
      <trkpt lat="45.57188" lon="6.01052">
        <ele>587.660054</ele>
        <time>2023-10-21T08:55:09.866Z</time>
      </trkpt>
      <trkpt lat="45.57197" lon="6.01044">
        <ele>586.992767</ele>
        <time>2023-10-21T08:55:12.434Z</time>
      </trkpt>
      <trkpt lat="45.5721" lon="6.01039">
        <ele>586.119087</ele>
        <time>2023-10-21T08:55:15.650Z</time>
      </trkpt>
      <trkpt lat="45.57217" lon="6.0104">
        <ele>585.663029</ele>
        <time>2023-10-21T08:55:17.321Z</time>
      </trkpt>
      <trkpt lat="45.57225" lon="6.01035">
        <ele>585.149311</ele>
        <time>2023-10-21T08:55:19.268Z</time>
      </trkpt>
      <trkpt lat="45.57254" lon="6.01047">
        <ele>583.238694</ele>
        <time>2023-10-21T08:55:36.539Z</time>
      </trkpt>
      <trkpt lat="45.5728" lon="6.01031">
        <ele>581.03535</ele>
        <time>2023-10-21T08:55:52.585Z</time>
      </trkpt>
      <trkpt lat="45.57318" lon="6.00993">
        <ele>577.117059</ele>
        <time>2023-10-21T08:56:18.222Z</time>
      </trkpt>
      <trkpt lat="45.57349" lon="6.00996">
        <ele>574.480501</ele>
        <time>2023-10-21T08:56:35.298Z</time>
      </trkpt>
      <trkpt lat="45.57443" lon="6.01042">
        <ele>566.126158</ele>
        <time>2023-10-21T08:57:29.291Z</time>
      </trkpt>
      <trkpt lat="45.57472" lon="6.01037">
        <ele>563.93522</ele>
        <time>2023-10-21T08:57:44.232Z</time>
      </trkpt>
      <trkpt lat="45.57613" lon="6.01033">
        <ele>553.297089</ele>
        <time>2023-10-21T08:59:03.401Z</time>
      </trkpt>
      <trkpt lat="45.57633" lon="6.01013">
        <ele>552.23144</ele>
        <time>2023-10-21T08:59:19.191Z</time>
      </trkpt>
      <trkpt lat="45.57628" lon="6.0098">
        <ele>551.232396</ele>
        <time>2023-10-21T08:59:34.757Z</time>
      </trkpt>
      <trkpt lat="45.57623" lon="6.00958">
        <ele>550.529927</ele>
        <time>2023-10-21T08:59:39.317Z</time>
      </trkpt>
      <trkpt lat="45.57613" lon="6.0088">
        <ele>548.151</ele>
        <time>2023-10-21T08:59:54.121Z</time>
      </trkpt>
      <trkpt lat="45.57602" lon="6.00835">
        <ele>546.718395</ele>
        <time>2023-10-21T09:00:02.245Z</time>
      </trkpt>
      <trkpt lat="45.57602" lon="6.00825">
        <ele>546.40776</ele>
        <time>2023-10-21T09:00:03.989Z</time>
      </trkpt>
      <trkpt lat="45.57605" lon="6.00806">
        <ele>545.825678</ele>
        <time>2023-10-21T09:00:07.059Z</time>
      </trkpt>
      <trkpt lat="45.57619" lon="6.00774">
        <ele>543.075007</ele>
        <time>2023-10-21T09:00:12.935Z</time>
      </trkpt>
      <trkpt lat="45.57622" lon="6.00762">
        <ele>542.057264</ele>
        <time>2023-10-21T09:00:15.084Z</time>
      </trkpt>
      <trkpt lat="45.57628" lon="6.00742">
        <ele>540.507514</ele>
        <time>2023-10-21T09:00:18.209Z</time>
      </trkpt>
      <trkpt lat="45.57637" lon="6.00728">
        <ele>539.104685</ele>
        <time>2023-10-21T09:00:21.136Z</time>
      </trkpt>
      <trkpt lat="45.57648" lon="6.00717">
        <ele>537.68841</ele>
        <time>2023-10-21T09:00:23.974Z</time>
      </trkpt>
      <trkpt lat="45.57673" lon="6.00706">
        <ele>534.980236</ele>
        <time>2023-10-21T09:00:29.445Z</time>
      </trkpt>
      <trkpt lat="45.57688" lon="6.00694">
        <ele>533.112153</ele>
        <time>2023-10-21T09:00:33.104Z</time>
      </trkpt>
      <trkpt lat="45.57701" lon="6.00678">
        <ele>531.368134</ele>
        <time>2023-10-21T09:00:36.691Z</time>
      </trkpt>
      <trkpt lat="45.57721" lon="6.00668">
        <ele>529.177504</ele>
        <time>2023-10-21T09:00:40.995Z</time>
      </trkpt>
      <trkpt lat="45.57727" lon="6.00662">
        <ele>528.375263</ele>
        <time>2023-10-21T09:00:42.602Z</time>
      </trkpt>
      <trkpt lat="45.57749" lon="6.00625">
        <ele>523.926942</ele>
        <time>2023-10-21T09:00:49.571Z</time>
      </trkpt>
      <trkpt lat="45.57756" lon="6.0059">
        <ele>520.039509</ele>
        <time>2023-10-21T09:00:54.907Z</time>
      </trkpt>
      <trkpt lat="45.57756" lon="6.00561">
        <ele>517.02098</ele>
        <time>2023-10-21T09:00:59.049Z</time>
      </trkpt>
      <trkpt lat="45.57748" lon="6.00477">
        <ele>508.1769</ele>
        <time>2023-10-21T09:01:10.964Z</time>
      </trkpt>
      <trkpt lat="45.57751" lon="6.00457">
        <ele>506.104924</ele>
        <time>2023-10-21T09:01:13.774Z</time>
      </trkpt>
      <trkpt lat="45.57764" lon="6.0044">
        <ele>503.475395</ele>
        <time>2023-10-21T09:01:17.355Z</time>
      </trkpt>
      <trkpt lat="45.57802" lon="6.00418">
        <ele>496.620165</ele>
        <time>2023-10-21T09:01:25.612Z</time>
      </trkpt>
      <trkpt lat="45.57817" lon="6.0042">
        <ele>493.780818</ele>
        <time>2023-10-21T09:01:28.641Z</time>
      </trkpt>
      <trkpt lat="45.57828" lon="6.00432">
        <ele>491.281764</ele>
        <time>2023-10-21T09:01:31.309Z</time>
      </trkpt>
      <trkpt lat="45.57843" lon="6.00436">
        <ele>488.431105</ele>
        <time>2023-10-21T09:01:34.315Z</time>
      </trkpt>
      <trkpt lat="45.57866" lon="6.00401">
        <ele>482.12095</ele>
        <time>2023-10-21T09:01:40.941Z</time>
      </trkpt>
      <trkpt lat="45.57898" lon="6.00369">
        <ele>474.834612</ele>
        <time>2023-10-21T09:01:48.542Z</time>
      </trkpt>
      <trkpt lat="45.57918" lon="6.00338">
        <ele>469.290433</ele>
        <time>2023-10-21T09:01:54.363Z</time>
      </trkpt>
      <trkpt lat="45.57929" lon="6.00312">
        <ele>465.860639</ele>
        <time>2023-10-21T09:01:58.509Z</time>
      </trkpt>
      <trkpt lat="45.57948" lon="6.00246">
        <ele>460.026115</ele>
        <time>2023-10-21T09:02:08.605Z</time>
      </trkpt>
      <trkpt lat="45.57955" lon="6.00213">
        <ele>457.239689</ele>
        <time>2023-10-21T09:02:13.632Z</time>
      </trkpt>
      <trkpt lat="45.57954" lon="6.00147">
        <ele>451.93721</ele>
        <time>2023-10-21T09:02:23.463Z</time>
      </trkpt>
      <trkpt lat="45.5795" lon="6.00127">
        <ele>450.193495</ele>
        <time>2023-10-21T09:02:26.821Z</time>
      </trkpt>
      <trkpt lat="45.57949" lon="6.00068">
        <ele>445.610997</ele>
        <time>2023-10-21T09:02:36.169Z</time>
      </trkpt>
      <trkpt lat="45.57959" lon="5.99959">
        <ele>441.568144</ele>
        <time>2023-10-21T09:02:54.263Z</time>
      </trkpt>
      <trkpt lat="45.57965" lon="5.99926">
        <ele>440.30731</ele>
        <time>2023-10-21T09:02:59.960Z</time>
      </trkpt>
      <trkpt lat="45.57964" lon="5.99882">
        <ele>438.705675</ele>
        <time>2023-10-21T09:03:07.172Z</time>
      </trkpt>
      <trkpt lat="45.57954" lon="5.99851">
        <ele>437.450612</ele>
        <time>2023-10-21T09:03:12.972Z</time>
      </trkpt>
      <trkpt lat="45.57953" lon="5.99829">
        <ele>436.652259</ele>
        <time>2023-10-21T09:03:16.725Z</time>
      </trkpt>
      <trkpt lat="45.57939" lon="5.99778">
        <ele>436.624987</ele>
        <time>2023-10-21T09:03:26.986Z</time>
      </trkpt>
      <trkpt lat="45.5794" lon="5.99748">
        <ele>436.815001</ele>
        <time>2023-10-21T09:03:33.213Z</time>
      </trkpt>
      <trkpt lat="45.57936" lon="5.99683">
        <ele>437.232535</ele>
        <time>2023-10-21T09:03:50.516Z</time>
      </trkpt>
      <trkpt lat="45.57928" lon="5.99637">
        <ele>437.539303</ele>
        <time>2023-10-21T09:04:05.672Z</time>
      </trkpt>
      <trkpt lat="45.5792" lon="5.99617">
        <ele>437.682439</ele>
        <time>2023-10-21T09:04:13.310Z</time>
      </trkpt>
      <trkpt lat="45.57888" lon="5.99584">
        <ele>438.121607</ele>
        <time>2023-10-21T09:04:33.435Z</time>
      </trkpt>
      <trkpt lat="45.57872" lon="5.99546">
        <ele>438.684588</ele>
        <time>2023-10-21T09:04:49.698Z</time>
      </trkpt>
      <trkpt lat="45.5787" lon="5.99532">
        <ele>438.867488</ele>
        <time>2023-10-21T09:04:55.266Z</time>
      </trkpt>
      <trkpt lat="45.57847" lon="5.9948">
        <ele>439.652188</ele>
        <time>2023-10-21T09:05:17.916Z</time>
      </trkpt>
      <trkpt lat="45.57832" lon="5.99426">
        <ele>440.389957</ele>
        <time>2023-10-21T09:05:35.970Z</time>
      </trkpt>
      <trkpt lat="45.57829" lon="5.99409">
        <ele>440.61387</ele>
        <time>2023-10-21T09:05:40.063Z</time>
      </trkpt>
      <trkpt lat="45.5782" lon="5.99389">
        <ele>440.919691</ele>
        <time>2023-10-21T09:05:45.134Z</time>
      </trkpt>
      <trkpt lat="45.57803" lon="5.99329">
        <ele>439.415686</ele>
        <time>2023-10-21T09:05:56.872Z</time>
      </trkpt>
      <trkpt lat="45.57785" lon="5.99256">
        <ele>435.865099</ele>
        <time>2023-10-21T09:06:09.506Z</time>
      </trkpt>
      <trkpt lat="45.57785" lon="5.99225">
        <ele>434.444419</ele>
        <time>2023-10-21T09:06:14.391Z</time>
      </trkpt>
      <trkpt lat="45.57791" lon="5.99189">
        <ele>432.744695</ele>
        <time>2023-10-21T09:06:20.119Z</time>
      </trkpt>
      <trkpt lat="45.5779" lon="5.99162">
        <ele>431.512714</ele>
        <time>2023-10-21T09:06:24.194Z</time>
      </trkpt>
      <trkpt lat="45.57796" lon="5.99122">
        <ele>429.630821</ele>
        <time>2023-10-21T09:06:30.371Z</time>
      </trkpt>
      <trkpt lat="45.57791" lon="5.99098">
        <ele>428.632165</ele>
        <time>2023-10-21T09:06:34.176Z</time>
      </trkpt>
      <trkpt lat="45.57782" lon="5.99079">
        <ele>427.802418</ele>
        <time>2023-10-21T09:06:37.544Z</time>
      </trkpt>
      <trkpt lat="45.57781" lon="5.99053">
        <ele>426.804116</ele>
        <time>2023-10-21T09:06:41.618Z</time>
      </trkpt>
      <trkpt lat="45.57798" lon="5.99">
        <ele>424.621744</ele>
        <time>2023-10-21T09:06:50.800Z</time>
      </trkpt>
      <trkpt lat="45.57805" lon="5.98964">
        <ele>423.19992</ele>
        <time>2023-10-21T09:06:57.134Z</time>
      </trkpt>
      <trkpt lat="45.57807" lon="5.98935">
        <ele>422.127403</ele>
        <time>2023-10-21T09:07:02.284Z</time>
      </trkpt>
      <trkpt lat="45.57817" lon="5.98905">
        <ele>420.882597</ele>
        <time>2023-10-21T09:07:08.247Z</time>
      </trkpt>
      <trkpt lat="45.57819" lon="5.98881">
        <ele>419.942637</ele>
        <time>2023-10-21T09:07:14.350Z</time>
      </trkpt>
      <trkpt lat="45.5781" lon="5.98833">
        <ele>419.282337</ele>
        <time>2023-10-21T09:07:29.078Z</time>
      </trkpt>
      <trkpt lat="45.57811" lon="5.98809">
        <ele>419.030676</ele>
        <time>2023-10-21T09:07:33.727Z</time>
      </trkpt>
      <trkpt lat="45.57817" lon="5.98779">
        <ele>418.710882</ele>
        <time>2023-10-21T09:07:41.752Z</time>
      </trkpt>
      <trkpt lat="45.5783" lon="5.98754">
        <ele>418.375637</ele>
        <time>2023-10-21T09:07:47.710Z</time>
      </trkpt>
      <trkpt lat="45.57839" lon="5.98728">
        <ele>418.074576</ele>
        <time>2023-10-21T09:07:53.275Z</time>
      </trkpt>
      <trkpt lat="45.57841" lon="5.98718">
        <ele>417.964702</ele>
        <time>2023-10-21T09:07:54.998Z</time>
      </trkpt>
      <trkpt lat="45.5784" lon="5.98711">
        <ele>417.885123</ele>
        <time>2023-10-21T09:07:56.421Z</time>
      </trkpt>
      <trkpt lat="45.57823" lon="5.98669">
        <ele>417.371993</ele>
        <time>2023-10-21T09:08:06.692Z</time>
      </trkpt>
      <trkpt lat="45.57813" lon="5.98654">
        <ele>417.156451</ele>
        <time>2023-10-21T09:08:13.000Z</time>
      </trkpt>
      <trkpt lat="45.57902" lon="5.98628">
        <ele>411.728845</ele>
        <time>2023-10-21T09:08:34.338Z</time>
      </trkpt>
      <trkpt lat="45.57909" lon="5.9862">
        <ele>411.152194</ele>
        <time>2023-10-21T09:08:36.394Z</time>
      </trkpt>
      <trkpt lat="45.57911" lon="5.986">
        <ele>410.26365</ele>
        <time>2023-10-21T09:08:39.782Z</time>
      </trkpt>
      <trkpt lat="45.57932" lon="5.98573">
        <ele>408.432812</ele>
        <time>2023-10-21T09:08:46.070Z</time>
      </trkpt>
      <trkpt lat="45.57954" lon="5.98561">
        <ele>406.899129</ele>
        <time>2023-10-21T09:08:51.091Z</time>
      </trkpt>
      <trkpt lat="45.57963" lon="5.98556">
        <ele>406.329151</ele>
        <time>2023-10-21T09:08:53.013Z</time>
      </trkpt>
      <trkpt lat="45.5798" lon="5.98551">
        <ele>405.172972</ele>
        <time>2023-10-21T09:08:56.946Z</time>
      </trkpt>
      <trkpt lat="45.57995" lon="5.98532">
        <ele>403.831483</ele>
        <time>2023-10-21T09:09:01.543Z</time>
      </trkpt>
      <trkpt lat="45.58008" lon="5.98507">
        <ele>402.471397</ele>
        <time>2023-10-21T09:09:06.277Z</time>
      </trkpt>
      <trkpt lat="45.58026" lon="5.98495">
        <ele>401.164133</ele>
        <time>2023-10-21T09:09:11.186Z</time>
      </trkpt>
      <trkpt lat="45.58038" lon="5.98465">
        <ele>399.562507</ele>
        <time>2023-10-21T09:09:16.850Z</time>
      </trkpt>
      <trkpt lat="45.58041" lon="5.98425">
        <ele>397.692007</ele>
        <time>2023-10-21T09:09:23.262Z</time>
      </trkpt>
      <trkpt lat="45.58039" lon="5.98384">
        <ele>395.840109</ele>
        <time>2023-10-21T09:09:29.620Z</time>
      </trkpt>
      <trkpt lat="45.5804" lon="5.98344">
        <ele>393.981258</ele>
        <time>2023-10-21T09:09:36.211Z</time>
      </trkpt>
      <trkpt lat="45.58046" lon="5.98318">
        <ele>393.569973</ele>
        <time>2023-10-21T09:09:40.907Z</time>
      </trkpt>
      <trkpt lat="45.58046" lon="5.98297">
        <ele>393.401556</ele>
        <time>2023-10-21T09:09:44.711Z</time>
      </trkpt>
      <trkpt lat="45.58038" lon="5.9828">
        <ele>393.231771</ele>
        <time>2023-10-21T09:09:48.994Z</time>
      </trkpt>
      <trkpt lat="45.58038" lon="5.98269">
        <ele>393.143101</ele>
        <time>2023-10-21T09:09:51.314Z</time>
      </trkpt>
      <trkpt lat="45.58057" lon="5.98246">
        <ele>392.862665</ele>
        <time>2023-10-21T09:09:59.332Z</time>
      </trkpt>
      <trkpt lat="45.58062" lon="5.98209">
        <ele>392.552885</ele>
        <time>2023-10-21T09:10:09.046Z</time>
      </trkpt>
      <trkpt lat="45.5808" lon="5.98191">
        <ele>392.304574</ele>
        <time>2023-10-21T09:10:16.842Z</time>
      </trkpt>
      <trkpt lat="45.58085" lon="5.9818">
        <ele>392.19167</ele>
        <time>2023-10-21T09:10:20.184Z</time>
      </trkpt>
      <trkpt lat="45.5808" lon="5.9816">
        <ele>392.02375</ele>
        <time>2023-10-21T09:10:24.794Z</time>
      </trkpt>
      <trkpt lat="45.58064" lon="5.98139">
        <ele>391.772254</ele>
        <time>2023-10-21T09:10:31.380Z</time>
      </trkpt>
      <trkpt lat="45.58022" lon="5.9812">
        <ele>390.856928</ele>
        <time>2023-10-21T09:10:44.396Z</time>
      </trkpt>
      <trkpt lat="45.58024" lon="5.98109">
        <ele>390.674684</ele>
        <time>2023-10-21T09:10:46.753Z</time>
      </trkpt>
      <trkpt lat="45.58018" lon="5.98088">
        <ele>390.302955</ele>
        <time>2023-10-21T09:10:51.799Z</time>
      </trkpt>
      <trkpt lat="45.58028" lon="5.98028">
        <ele>389.316387</ele>
        <time>2023-10-21T09:11:05.309Z</time>
      </trkpt>
      <trkpt lat="45.58028" lon="5.97911">
        <ele>387.125101</ele>
        <time>2023-10-21T09:11:26.224Z</time>
      </trkpt>
      <trkpt lat="45.58034" lon="5.97895">
        <ele>385.960517</ele>
        <time>2023-10-21T09:11:29.169Z</time>
      </trkpt>
      <trkpt lat="45.58036" lon="5.97863">
        <ele>384.028196</ele>
        <time>2023-10-21T09:11:33.933Z</time>
      </trkpt>
      <trkpt lat="45.58034" lon="5.97851">
        <ele>383.226874</ele>
        <time>2023-10-21T09:11:35.885Z</time>
      </trkpt>
      <trkpt lat="45.58043" lon="5.97804">
        <ele>380.223429</ele>
        <time>2023-10-21T09:11:43.145Z</time>
      </trkpt>
      <trkpt lat="45.58044" lon="5.97766">
        <ele>377.858385</ele>
        <time>2023-10-21T09:11:48.819Z</time>
      </trkpt>
      <trkpt lat="45.58049" lon="5.97716">
        <ele>374.723302</ele>
        <time>2023-10-21T09:11:56.410Z</time>
      </trkpt>
      <trkpt lat="45.58054" lon="5.97685">
        <ele>372.73807</ele>
        <time>2023-10-21T09:12:01.235Z</time>
      </trkpt>
      <trkpt lat="45.58053" lon="5.97674">
        <ele>372.039397</ele>
        <time>2023-10-21T09:12:02.939Z</time>
      </trkpt>
      <trkpt lat="45.5803" lon="5.97655">
        <ele>369.802794</ele>
        <time>2023-10-21T09:12:08.603Z</time>
      </trkpt>
      <trkpt lat="45.57974" lon="5.9764">
        <ele>364.929206</ele>
        <time>2023-10-21T09:12:21.182Z</time>
      </trkpt>
      <trkpt lat="45.57926" lon="5.97614">
        <ele>360.581707</ele>
        <time>2023-10-21T09:12:32.674Z</time>
      </trkpt>
      <trkpt lat="45.57906" lon="5.97608">
        <ele>358.817014</ele>
        <time>2023-10-21T09:12:37.342Z</time>
      </trkpt>
      <trkpt lat="45.57892" lon="5.97611">
        <ele>357.638915</ele>
        <time>2023-10-21T09:12:40.444Z</time>
      </trkpt>
      <trkpt lat="45.57849" lon="5.97608">
        <ele>353.260585</ele>
        <time>2023-10-21T09:12:50.054Z</time>
      </trkpt>
      <trkpt lat="45.57838" lon="5.97605">
        <ele>352.021851</ele>
        <time>2023-10-21T09:12:52.525Z</time>
      </trkpt>
      <trkpt lat="45.57823" lon="5.97596">
        <ele>350.278354</ele>
        <time>2023-10-21T09:12:55.929Z</time>
      </trkpt>
      <trkpt lat="45.5782" lon="5.97591">
        <ele>349.810576</ele>
        <time>2023-10-21T09:12:56.828Z</time>
      </trkpt>
      <trkpt lat="45.57824" lon="5.97588">
        <ele>349.226573</ele>
        <time>2023-10-21T09:12:57.964Z</time>
      </trkpt>
      <trkpt lat="45.57822" lon="5.97585">
        <ele>348.925335</ele>
        <time>2023-10-21T09:12:58.558Z</time>
      </trkpt>
      <trkpt lat="45.57803" lon="5.9758">
        <ele>346.791193</ele>
        <time>2023-10-21T09:13:02.658Z</time>
      </trkpt>
      <trkpt lat="45.57776" lon="5.97579">
        <ele>343.830078</ele>
        <time>2023-10-21T09:13:08.303Z</time>
      </trkpt>
      <trkpt lat="45.5776" lon="5.97573">
        <ele>342.052824</ele>
        <time>2023-10-21T09:13:11.677Z</time>
      </trkpt>
      <trkpt lat="45.57747" lon="5.97563">
        <ele>340.427716</ele>
        <time>2023-10-21T09:13:14.798Z</time>
      </trkpt>
      <trkpt lat="45.57717" lon="5.97532">
        <ele>336.506753</ele>
        <time>2023-10-21T09:13:22.485Z</time>
      </trkpt>
      <trkpt lat="45.57691" lon="5.97514">
        <ele>334.200313</ele>
        <time>2023-10-21T09:13:28.551Z</time>
      </trkpt>
      <trkpt lat="45.57678" lon="5.97506">
        <ele>333.023818</ele>
        <time>2023-10-21T09:13:46.773Z</time>
      </trkpt>
      <trkpt lat="45.57689" lon="5.97481">
        <ele>331.365705</ele>
        <time>2023-10-21T09:13:49.254Z</time>
      </trkpt>
      <trkpt lat="45.57689" lon="5.97473">
        <ele>330.904507</ele>
        <time>2023-10-21T09:13:49.954Z</time>
      </trkpt>
      <trkpt lat="45.57682" lon="5.9745">
        <ele>329.541116</ele>
        <time>2023-10-21T09:13:52.009Z</time>
      </trkpt>
      <trkpt lat="45.57689" lon="5.97447">
        <ele>328.968496</ele>
        <time>2023-10-21T09:13:52.906Z</time>
      </trkpt>
      <trkpt lat="45.57731" lon="5.97412">
        <ele>325.068607</ele>
        <time>2023-10-21T09:13:59.065Z</time>
      </trkpt>
      <trkpt lat="45.57744" lon="5.97402">
        <ele>323.901443</ele>
        <time>2023-10-21T09:14:00.954Z</time>
      </trkpt>
      <trkpt lat="45.57756" lon="5.97391">
        <ele>322.717452</ele>
        <time>2023-10-21T09:14:02.964Z</time>
      </trkpt>
      <trkpt lat="45.57764" lon="5.97382">
        <ele>322.166207</ele>
        <time>2023-10-21T09:14:04.349Z</time>
      </trkpt>
      <trkpt lat="45.57768" lon="5.97371">
        <ele>321.944258</ele>
        <time>2023-10-21T09:14:05.531Z</time>
      </trkpt>
      <trkpt lat="45.57766" lon="5.97361">
        <ele>321.748327</ele>
        <time>2023-10-21T09:14:06.623Z</time>
      </trkpt>
      <trkpt lat="45.57749" lon="5.97329">
        <ele>321.016198</ele>
        <time>2023-10-21T09:14:10.814Z</time>
      </trkpt>
      <trkpt lat="45.57744" lon="5.97312">
        <ele>320.673053</ele>
        <time>2023-10-21T09:14:12.913Z</time>
      </trkpt>
      <trkpt lat="45.57741" lon="5.97295">
        <ele>320.355248</ele>
        <time>2023-10-21T09:14:14.911Z</time>
      </trkpt>
      <trkpt lat="45.57744" lon="5.9728">
        <ele>320.074151</ele>
        <time>2023-10-21T09:14:16.698Z</time>
      </trkpt>
      <trkpt lat="45.57737" lon="5.9722">
        <ele>318.970706</ele>
        <time>2023-10-21T09:14:23.441Z</time>
      </trkpt>
      <trkpt lat="45.57695" lon="5.97108">
        <ele>316.490453</ele>
        <time>2023-10-21T09:14:36.816Z</time>
      </trkpt>
      <trkpt lat="45.57672" lon="5.97075">
        <ele>315.496502</ele>
        <time>2023-10-21T09:14:41.472Z</time>
      </trkpt>
      <trkpt lat="45.57662" lon="5.97054">
        <ele>314.952823</ele>
        <time>2023-10-21T09:14:44.007Z</time>
      </trkpt>
      <trkpt lat="45.57659" lon="5.97047">
        <ele>314.77508</ele>
        <time>2023-10-21T09:14:44.832Z</time>
      </trkpt>
      <trkpt lat="45.57609" lon="5.96923">
        <ele>311.802586</ele>
        <time>2023-10-21T09:14:59.162Z</time>
      </trkpt>
      <trkpt lat="45.57603" lon="5.96912">
        <ele>311.536064</ele>
        <time>2023-10-21T09:15:00.692Z</time>
      </trkpt>
      <trkpt lat="45.5759" lon="5.96901">
        <ele>311.138869</ele>
        <time>2023-10-21T09:15:02.982Z</time>
      </trkpt>
      <trkpt lat="45.57572" lon="5.96905">
        <ele>310.674369</ele>
        <time>2023-10-21T09:15:05.660Z</time>
      </trkpt>
      <trkpt lat="45.57566" lon="5.96902">
        <ele>310.521627</ele>
        <time>2023-10-21T09:15:06.538Z</time>
      </trkpt>
      <trkpt lat="45.57546" lon="5.96815">
        <ele>308.86514</ele>
        <time>2023-10-21T09:15:16.210Z</time>
      </trkpt>
      <trkpt lat="45.57542" lon="5.96807">
        <ele>308.698956</ele>
        <time>2023-10-21T09:15:17.175Z</time>
      </trkpt>
      <trkpt lat="45.57537" lon="5.96805">
        <ele>308.54851</ele>
        <time>2023-10-21T09:15:18.062Z</time>
      </trkpt>
      <trkpt lat="45.57531" lon="5.96806">
        <ele>308.395429</ele>
        <time>2023-10-21T09:15:19.676Z</time>
      </trkpt>
      <trkpt lat="45.57524" lon="5.96798">
        <ele>308.164661</ele>
        <time>2023-10-21T09:15:22.107Z</time>
      </trkpt>
      <trkpt lat="45.57515" lon="5.9677">
        <ele>307.616517</ele>
        <time>2023-10-21T09:15:25.352Z</time>
      </trkpt>
      <trkpt lat="45.57507" lon="5.96733">
        <ele>307.118852</ele>
        <time>2023-10-21T09:15:29.587Z</time>
      </trkpt>
      <trkpt lat="45.57488" lon="5.96684">
        <ele>306.457112</ele>
        <time>2023-10-21T09:15:35.686Z</time>
      </trkpt>
      <trkpt lat="45.57473" lon="5.96625">
        <ele>305.713514</ele>
        <time>2023-10-21T09:15:42.617Z</time>
      </trkpt>
      <trkpt lat="45.57469" lon="5.96611">
        <ele>305.533961</ele>
        <time>2023-10-21T09:15:44.304Z</time>
      </trkpt>
      <trkpt lat="45.5747" lon="5.96603">
        <ele>305.43848</ele>
        <time>2023-10-21T09:15:45.196Z</time>
      </trkpt>
      <trkpt lat="45.57473" lon="5.96584">
        <ele>305.205499</ele>
        <time>2023-10-21T09:15:47.417Z</time>
      </trkpt>
      <trkpt lat="45.57477" lon="5.96577">
        <ele>305.1023</ele>
        <time>2023-10-21T09:15:48.416Z</time>
      </trkpt>
      <trkpt lat="45.5749" lon="5.96566">
        <ele>304.84288</ele>
        <time>2023-10-21T09:15:50.892Z</time>
      </trkpt>
      <trkpt lat="45.57521" lon="5.96553">
        <ele>304.476901</ele>
        <time>2023-10-21T09:15:56.180Z</time>
      </trkpt>
      <trkpt lat="45.57524" lon="5.96549">
        <ele>304.476901</ele>
        <time>2023-10-21T09:15:56.880Z</time>
      </trkpt>
      <trkpt lat="45.57529" lon="5.96542">
        <ele>304.476901</ele>
        <time>2023-10-21T09:15:58.063Z</time>
      </trkpt>
      <trkpt lat="45.5753" lon="5.96526">
        <ele>304.476901</ele>
        <time>2023-10-21T09:15:59.959Z</time>
      </trkpt>
      <trkpt lat="45.57518" lon="5.96462">
        <ele>304.476901</ele>
        <time>2023-10-21T09:16:07.887Z</time>
      </trkpt>
      <trkpt lat="45.57517" lon="5.96455">
        <ele>304.476901</ele>
        <time>2023-10-21T09:16:08.705Z</time>
      </trkpt>
      <trkpt lat="45.5752" lon="5.96449">
        <ele>304.476901</ele>
        <time>2023-10-21T09:16:09.710Z</time>
      </trkpt>
      <trkpt lat="45.57524" lon="5.96452">
        <ele>304.476901</ele>
        <time>2023-10-21T09:16:10.690Z</time>
      </trkpt>
      <trkpt lat="45.57533" lon="5.96461">
        <ele>304.476901</ele>
        <time>2023-10-21T09:16:13.502Z</time>
      </trkpt>
      <trkpt lat="45.57543" lon="5.96465">
        <ele>304.476901</ele>
        <time>2023-10-21T09:16:15.932Z</time>
      </trkpt>
    </trkseg>
  </trk>
</gpx>